^^
Meteo Knjazevac Station Historical Data
Daily Summary for March 26, 2021 Units:  Both    English   Metric
Daily Weekly Monthly Yearly Custom
  High: Low: Average:
Temperature: 86.5 °F /  30.3 °C 46.9 °F /  8.3 °C 65.6 °F /  18.7 °C
Dew Point: 62.8 °F /  17.1 °C 45.3 °F /  7.4 °C 52.8 °F /  11.6 °C
Humidity: 98% 35% 68%
Wind Speed: 5mph /  8km/h - 1.5mph /  2.4km/h
Wind Gust: 9mph /  14.5km/h - -
Wind- - SW
Pressure: 30.24 in /  1023.9 hPa 30.11 in /  1019.5 hPa -
Precipitation: 0.00 in /  0 mm    
Historical Graphs
 
 
Tabular Data for March 26, 2021
Time Temperature Dew Point Pressure Wind Wind Speed Wind Gust Humidity Rainfall Rate (Hourly) solar Conditions
00:00 54.5 °F /  12.5 °C 49.8 °F /  9.9 °C 30.22in /  1023.2hPa West 1mph /  1.6km/h 4mph /  6.4km/h 84% 0.00in /  0mm 0 W/m2
00:10 54 °F /  12.2 °C 49.2 °F /  9.6 °C 30.22in /  1023.2hPa Calm   2mph /  3.2km/h 84% 0.00in /  0mm 0 W/m2
00:20 53.4 °F /  11.9 °C 49 °F /  9.4 °C 30.22in /  1023.2hPa WNW 3mph /  4.8km/h 6mph /  9.7km/h 85% 0.00in /  0mm 0 W/m2
00:30 53.6 °F /  12 °C 49.5 °F /  9.7 °C 30.22in /  1023.2hPa WNW 2mph /  3.2km/h 4mph /  6.4km/h 86% 0.00in /  0mm 0 W/m2
00:40 53.6 °F /  12 °C 49.5 °F /  9.7 °C 30.22in /  1023.2hPa WNW 2mph /  3.2km/h 4mph /  6.4km/h 86% 0.00in /  0mm 0 W/m2
00:50 53.4 °F /  11.9 °C 49.3 °F /  9.6 °C 30.22in /  1023.2hPa NW 1mph /  1.6km/h 4mph /  6.4km/h 86% 0.00in /  0mm 0 W/m2
01:00 53.2 °F /  11.8 °C 49.2 °F /  9.6 °C 30.22in /  1023.2hPa WNW 1mph /  1.6km/h 4mph /  6.4km/h 86% 0.00in /  0mm 0 W/m2
01:10 52.9 °F /  11.6 °C 48.8 °F /  9.3 °C 30.22in /  1023.2hPa West 2mph /  3.2km/h 3mph /  4.8km/h 86% 0.00in /  0mm 0 W/m2
01:20 52.3 °F /  11.3 °C 48.3 °F /  9.1 °C 30.22in /  1023.2hPa WNW 2mph /  3.2km/h 3mph /  4.8km/h 86% 0.00in /  0mm 0 W/m2
01:30 52 °F /  11.1 °C 47.9 °F /  8.8 °C 30.22in /  1023.2hPa WNW 1mph /  1.6km/h 4mph /  6.4km/h 86% 0.00in /  0mm 0 W/m2
01:40 51.6 °F /  10.9 °C 48.2 °F /  9 °C 30.22in /  1023.2hPa WNW 2mph /  3.2km/h 4mph /  6.4km/h 88% 0.00in /  0mm 0 W/m2
01:50 51.6 °F /  10.9 °C 48.5 °F /  9.2 °C 30.22in /  1023.2hPa Calm   4mph /  6.4km/h 89% 0.00in /  0mm 0 W/m2
02:00 51.4 °F /  10.8 °C 48 °F /  8.9 °C 30.22in /  1023.2hPa WNW 2mph /  3.2km/h 4mph /  6.4km/h 88% 0.00in /  0mm 0 W/m2
02:10 51.1 °F /  10.6 °C 48 °F /  8.9 °C 30.23in /  1023.6hPa West 1mph /  1.6km/h 4mph /  6.4km/h 89% 0.00in /  0mm 0 W/m2
02:20 50.7 °F /  10.4 °C 47.6 °F /  8.7 °C 30.23in /  1023.6hPa West 2mph /  3.2km/h 4mph /  6.4km/h 89% 0.00in /  0mm 0 W/m2
02:30 50.4 °F /  10.2 °C 47.5 °F /  8.6 °C 30.22in /  1023.2hPa WNW 2mph /  3.2km/h 5mph /  8km/h 90% 0.00in /  0mm 0 W/m2
02:40 50.4 °F /  10.2 °C 47.5 °F /  8.6 °C 30.22in /  1023.2hPa WNW 1mph /  1.6km/h 5mph /  8km/h 90% 0.00in /  0mm 0 W/m2
02:50 50.4 °F /  10.2 °C 47.5 °F /  8.6 °C 30.22in /  1023.2hPa Calm   3mph /  4.8km/h 90% 0.00in /  0mm 0 W/m2
03:00 50.4 °F /  10.2 °C 47.8 °F /  8.8 °C 30.22in /  1023.2hPa NW 2mph /  3.2km/h 3mph /  4.8km/h 91% 0.00in /  0mm 0 W/m2
03:10 50.4 °F /  10.2 °C 47.5 °F /  8.6 °C 30.22in /  1023.2hPa NW 2mph /  3.2km/h 4mph /  6.4km/h 90% 0.00in /  0mm 0 W/m2
03:20 50.2 °F /  10.1 °C 47.4 °F /  8.6 °C 30.22in /  1023.2hPa NW 1mph /  1.6km/h 3mph /  4.8km/h 90% 0.00in /  0mm 0 W/m2
03:30 49.8 °F /  9.9 °C 47 °F /  8.3 °C 30.22in /  1023.2hPa West 2mph /  3.2km/h 4mph /  6.4km/h 90% 0.00in /  0mm 0 W/m2
03:40 49.5 °F /  9.7 °C 46.6 °F /  8.1 °C 30.22in /  1023.2hPa West 2mph /  3.2km/h 3mph /  4.8km/h 90% 0.00in /  0mm 0 W/m2
03:50 49.1 °F /  9.5 °C 46.6 °F /  8.1 °C 30.22in /  1023.2hPa WNW 3mph /  4.8km/h 6mph /  9.7km/h 91% 0.00in /  0mm 0 W/m2
04:00 48.9 °F /  9.4 °C 46.4 °F /  8 °C 30.22in /  1023.2hPa West 2mph /  3.2km/h 6mph /  9.7km/h 91% 0.00in /  0mm 0 W/m2
04:10 48.7 °F /  9.3 °C 46.2 °F /  7.9 °C 30.22in /  1023.2hPa West 1mph /  1.6km/h 4mph /  6.4km/h 91% 0.00in /  0mm 0 W/m2
04:20 48.6 °F /  9.2 °C 46.6 °F /  8.1 °C 30.22in /  1023.2hPa NW 1mph /  1.6km/h 3mph /  4.8km/h 93% 0.00in /  0mm 0 W/m2
04:30 48.6 °F /  9.2 °C 46.6 °F /  8.1 °C 30.22in /  1023.2hPa West 1mph /  1.6km/h 3mph /  4.8km/h 93% 0.00in /  0mm 0 W/m2
04:40 48.6 °F /  9.2 °C 46.6 °F /  8.1 °C 30.22in /  1023.2hPa West 3mph /  4.8km/h 5mph /  8km/h 93% 0.00in /  0mm 0 W/m2
04:50 48.4 °F /  9.1 °C 46.4 °F /  8 °C 30.22in /  1023.2hPa West 1mph /  1.6km/h 5mph /  8km/h 93% 0.00in /  0mm 0 W/m2
05:00 48.2 °F /  9 °C 46.3 °F /  7.9 °C 30.23in /  1023.6hPa West 1mph /  1.6km/h 5mph /  8km/h 93% 0.00in /  0mm 0 W/m2
05:10 48 °F /  8.9 °C 46.4 °F /  8 °C 30.23in /  1023.6hPa WNW 2mph /  3.2km/h 6mph /  9.7km/h 94% 0.00in /  0mm 0 W/m2
05:20 48.4 °F /  9.1 °C 46.7 °F /  8.2 °C 30.23in /  1023.6hPa West 2mph /  3.2km/h 6mph /  9.7km/h 94% 0.00in /  0mm 0 W/m2
05:30 48.2 °F /  9 °C 46.3 °F /  7.9 °C 30.23in /  1023.6hPa West 2mph /  3.2km/h 5mph /  8km/h 93% 0.00in /  0mm 0 W/m2
05:40 47.8 °F /  8.8 °C 45.9 °F /  7.7 °C 30.23in /  1023.6hPa West 2mph /  3.2km/h 4mph /  6.4km/h 93% 0.00in /  0mm 0 W/m2
05:50 47.7 °F /  8.7 °C 45.7 °F /  7.6 °C 30.23in /  1023.6hPa West 2mph /  3.2km/h 5mph /  8km/h 93% 0.00in /  0mm 0 W/m2
06:00 47.5 °F /  8.6 °C 45.8 °F /  7.7 °C 30.23in /  1023.6hPa West 1mph /  1.6km/h 5mph /  8km/h 94% 0.00in /  0mm 0 W/m2
06:10 47.3 °F /  8.5 °C 45.6 °F /  7.6 °C 30.23in /  1023.6hPa West 2mph /  3.2km/h 5mph /  8km/h 94% 0.00in /  0mm 0 W/m2
06:20 47.3 °F /  8.5 °C 45.7 °F /  7.6 °C 30.23in /  1023.6hPa West 5mph /  8km/h 6mph /  9.7km/h 94% 0.00in /  0mm 0 W/m2
06:30 47.3 °F /  8.5 °C 45.7 °F /  7.6 °C 30.24in /  1023.9hPa WSW 2mph /  3.2km/h 6mph /  9.7km/h 94% 0.00in /  0mm 9 W/m2
06:40 46.9 °F /  8.3 °C 45.3 °F /  7.4 °C 30.24in /  1023.9hPa WSW 3mph /  4.8km/h 5mph /  8km/h 94% 0.00in /  0mm 17 W/m2
06:50 46.9 °F /  8.3 °C 45.6 °F /  7.6 °C 30.24in /  1023.9hPa West 3mph /  4.8km/h 5mph /  8km/h 95% 0.00in /  0mm 26 W/m2
07:00 47.5 °F /  8.6 °C 46.4 °F /  8 °C 30.24in /  1023.9hPa WNW 2mph /  3.2km/h 5mph /  8km/h 96% 0.00in /  0mm 33 W/m2
07:10 47.8 °F /  8.8 °C 46.5 °F /  8.1 °C 30.24in /  1023.9hPa West 2mph /  3.2km/h 5mph /  8km/h 95% 0.00in /  0mm 39 W/m2
07:20 47.8 °F /  8.8 °C 46.8 °F /  8.2 °C 30.24in /  1023.9hPa West 2mph /  3.2km/h 3mph /  4.8km/h 96% 0.00in /  0mm 103 W/m2
07:30 48.2 °F /  9 °C 47.1 °F /  8.4 °C 30.24in /  1023.9hPa West 1mph /  1.6km/h 5mph /  8km/h 96% 0.00in /  0mm 130 W/m2
07:40 48.4 °F /  9.1 °C 47.3 °F /  8.5 °C 30.24in /  1023.9hPa West 1mph /  1.6km/h 2mph /  3.2km/h 96% 0.00in /  0mm 137 W/m2
07:50 48.8 °F /  9.3 °C 47.7 °F /  8.7 °C 30.24in /  1023.9hPa West 1mph /  1.6km/h 4mph /  6.4km/h 96% 0.00in /  0mm 188 W/m2
08:00 49.5 °F /  9.7 °C 48.9 °F /  9.4 °C 30.24in /  1023.9hPa West 2mph /  3.2km/h 4mph /  6.4km/h 98% 0.00in /  0mm 218 W/m2
08:10 50.4 °F /  10.2 °C 49.8 °F /  9.9 °C 30.24in /  1023.9hPa WSW 1mph /  1.6km/h 2mph /  3.2km/h 98% 0.00in /  0mm 242 W/m2
08:20 51.3 °F /  10.7 °C 50.2 °F /  10.1 °C 30.24in /  1023.9hPa Calm   3mph /  4.8km/h 96% 0.00in /  0mm 285 W/m2
08:30 53.1 °F /  11.7 °C 52 °F /  11.1 °C 30.24in /  1023.9hPa West 2mph /  3.2km/h 3mph /  4.8km/h 96% 0.00in /  0mm 322 W/m2
08:40 55.8 °F /  13.2 °C 54.1 °F /  12.3 °C 30.24in /  1023.9hPa WSW 2mph /  3.2km/h 3mph /  4.8km/h 94% 0.00in /  0mm 352 W/m2
08:50 57.9 °F /  14.4 °C 55 °F /  12.8 °C 30.24in /  1023.9hPa West 1mph /  1.6km/h 3mph /  4.8km/h 90% 0.00in /  0mm 380 W/m2
09:00 60.1 °F /  15.6 °C 55.9 °F /  13.3 °C 30.24in /  1023.9hPa West 1mph /  1.6km/h 3mph /  4.8km/h 86% 0.00in /  0mm 407 W/m2
09:10 62.1 °F /  16.7 °C 57.5 °F /  14.2 °C 30.24in /  1023.9hPa Calm   3mph /  4.8km/h 85% 0.00in /  0mm 434 W/m2
09:20 64.1 °F /  17.8 °C 58.1 °F /  14.5 °C 30.24in /  1023.9hPa SW 1mph /  1.6km/h 3mph /  4.8km/h 81% 0.00in /  0mm 460 W/m2
09:30 65.7 °F /  18.7 °C 58.6 °F /  14.8 °C 30.24in /  1023.9hPa SW 1mph /  1.6km/h 2mph /  3.2km/h 78% 0.00in /  0mm 484 W/m2
09:40 67.7 °F /  19.8 °C 60.2 °F /  15.7 °C 30.24in /  1023.9hPa SSW 1mph /  1.6km/h 4mph /  6.4km/h 77% 0.00in /  0mm 508 W/m2
09:50 69.3 °F /  20.7 °C 59.9 °F /  15.5 °C 30.23in /  1023.6hPa SSW 2mph /  3.2km/h 4mph /  6.4km/h 72% 0.00in /  0mm 531 W/m2
10:00 70.9 °F /  21.6 °C 60.2 °F /  15.7 °C 30.24in /  1023.9hPa SSW 2mph /  3.2km/h 5mph /  8km/h 69% 0.00in /  0mm 552 W/m2
10:10 72.2 °F /  22.3 °C 61 °F /  16.1 °C 30.23in /  1023.6hPa SSW 1mph /  1.6km/h 4mph /  6.4km/h 68% 0.00in /  0mm 277 W/m2
10:20 73.8 °F /  23.2 °C 61.3 °F /  16.3 °C 30.23in /  1023.6hPa SE 2mph /  3.2km/h 6mph /  9.7km/h 65% 0.00in /  0mm 193 W/m2
10:30 74.9 °F /  23.8 °C 61 °F /  16.1 °C 30.23in /  1023.6hPa ESE 3mph /  4.8km/h 7mph /  11.3km/h 62% 0.00in /  0mm 610 W/m2
10:40 76.1 °F /  24.5 °C 61.2 °F /  16.2 °C 30.22in /  1023.2hPa East 2mph /  3.2km/h 6mph /  9.7km/h 60% 0.00in /  0mm 461 W/m2
10:50 77 °F /  25 °C 61.6 °F /  16.4 °C 30.22in /  1023.2hPa ENE 1mph /  1.6km/h 5mph /  8km/h 59% 0.00in /  0mm 124 W/m2
11:00 78.1 °F /  25.6 °C 62.1 °F /  16.7 °C 30.22in /  1023.2hPa East 2mph /  3.2km/h 5mph /  8km/h 58% 0.00in /  0mm 520 W/m2
11:10 78.8 °F /  26 °C 62.8 °F /  17.1 °C 30.21in /  1022.9hPa Calm   5mph /  8km/h 58% 0.00in /  0mm 666 W/m2
11:20 79.7 °F /  26.5 °C 61.6 °F /  16.4 °C 30.21in /  1022.9hPa North 1mph /  1.6km/h 5mph /  8km/h 54% 0.00in /  0mm 677 W/m2
11:30 80.6 °F /  27 °C 61.9 °F /  16.6 °C 30.21in /  1022.9hPa SSE 2mph /  3.2km/h 5mph /  8km/h 53% 0.00in /  0mm 686 W/m2
11:40 81.3 °F /  27.4 °C 60.9 °F /  16.1 °C 30.21in /  1022.9hPa WSW 2mph /  3.2km/h 5mph /  8km/h 50% 0.00in /  0mm 693 W/m2
11:50 82 °F /  27.8 °C 59.8 °F /  15.4 °C 30.20in /  1022.6hPa SW 2mph /  3.2km/h 5mph /  8km/h 47% 0.00in /  0mm 699 W/m2
12:00 82.6 °F /  28.1 °C 58.5 °F /  14.7 °C 30.20in /  1022.6hPa SSE 2mph /  3.2km/h 5mph /  8km/h 44% 0.00in /  0mm 702 W/m2
12:10 83.3 °F /  28.5 °C 57.8 °F /  14.3 °C 30.19in /  1022.2hPa North 1mph /  1.6km/h 5mph /  8km/h 42% 0.00in /  0mm 705 W/m2
12:20 83.7 °F /  28.7 °C 58.2 °F /  14.6 °C 30.19in /  1022.2hPa East 1mph /  1.6km/h 5mph /  8km/h 42% 0.00in /  0mm 706 W/m2
12:30 84.2 °F /  29 °C 56.6 °F /  13.7 °C 30.19in /  1022.2hPa NE 2mph /  3.2km/h 6mph /  9.7km/h 39% 0.00in /  0mm 705 W/m2
12:40 84.7 °F /  29.3 °C 56.3 °F /  13.5 °C 30.19in /  1022.2hPa NE 1mph /  1.6km/h 6mph /  9.7km/h 38% 0.00in /  0mm 702 W/m2
12:50 85.1 °F /  29.5 °C 57.4 °F /  14.1 °C 30.18in /  1021.9hPa ENE 2mph /  3.2km/h 6mph /  9.7km/h 39% 0.00in /  0mm 698 W/m2
13:00 85.5 °F /  29.7 °C 57 °F /  13.9 °C 30.18in /  1021.9hPa Calm   5mph /  8km/h 38% 0.00in /  0mm 692 W/m2
13:10 85.8 °F /  29.9 °C 57.3 °F /  14.1 °C 30.18in /  1021.9hPa SW 5mph /  8km/h 7mph /  11.3km/h 38% 0.00in /  0mm 685 W/m2
13:20 86 °F /  30 °C 58.2 °F /  14.6 °C 30.17in /  1021.6hPa West 3mph /  4.8km/h 8mph /  12.9km/h 39% 0.00in /  0mm 676 W/m2
13:30 86.4 °F /  30.2 °C 57.8 °F /  14.3 °C 30.17in /  1021.6hPa West 2mph /  3.2km/h 5mph /  8km/h 38% 0.00in /  0mm 666 W/m2
13:40 86.2 °F /  30.1 °C 57.6 °F /  14.2 °C 30.17in /  1021.6hPa South 1mph /  1.6km/h 6mph /  9.7km/h 38% 0.00in /  0mm 654 W/m2
13:50 86.4 °F /  30.2 °C 57 °F /  13.9 °C 30.16in /  1021.2hPa South 2mph /  3.2km/h 4mph /  6.4km/h 37% 0.00in /  0mm 640 W/m2
14:00 86.5 °F /  30.3 °C 57.9 °F /  14.4 °C 30.16in /  1021.2hPa WSW 3mph /  4.8km/h 6mph /  9.7km/h 38% 0.00in /  0mm 625 W/m2
14:10 86.4 °F /  30.2 °C 55.5 °F /  13.1 °C 30.16in /  1021.2hPa WSW 2mph /  3.2km/h 7mph /  11.3km/h 35% 0.00in /  0mm 609 W/m2
14:20 86.2 °F /  30.1 °C 55.3 °F /  12.9 °C 30.15in /  1020.9hPa WSW 2mph /  3.2km/h 6mph /  9.7km/h 35% 0.00in /  0mm 591 W/m2
14:30 86.2 °F /  30.1 °C 56.9 °F /  13.8 °C 30.15in /  1020.9hPa South 2mph /  3.2km/h 6mph /  9.7km/h 37% 0.00in /  0mm 572 W/m2
14:40 86.4 °F /  30.2 °C 57 °F /  13.9 °C 30.15in /  1020.9hPa West 1mph /  1.6km/h 5mph /  8km/h 37% 0.00in /  0mm 551 W/m2
14:50 86.4 °F /  30.2 °C 57.8 °F /  14.3 °C 30.14in /  1020.5hPa SW 2mph /  3.2km/h 6mph /  9.7km/h 38% 0.00in /  0mm 530 W/m2
15:00 86.3 °F /  30.2 °C 56.2 °F /  13.4 °C 30.14in /  1020.5hPa SSE 1mph /  1.6km/h 5mph /  8km/h 36% 0.00in /  0mm 507 W/m2
15:10 86.4 °F /  30.2 °C 57 °F /  13.9 °C 30.14in /  1020.5hPa NNE 2mph /  3.2km/h 4mph /  6.4km/h 37% 0.00in /  0mm 483 W/m2
15:20 86.3 °F /  30.2 °C 56.2 °F /  13.4 °C 30.13in /  1020.2hPa NE 1mph /  1.6km/h 7mph /  11.3km/h 36% 0.00in /  0mm 458 W/m2
15:30 86.4 °F /  30.2 °C 57 °F /  13.9 °C 30.13in /  1020.2hPa NE 1mph /  1.6km/h 9mph /  14.5km/h 37% 0.00in /  0mm 432 W/m2
15:40 86.4 °F /  30.2 °C 57.1 °F /  13.9 °C 30.13in /  1020.2hPa North 2mph /  3.2km/h 6mph /  9.7km/h 37% 0.00in /  0mm 406 W/m2
15:50 86.5 °F /  30.3 °C 57.2 °F /  14 °C 30.13in /  1020.2hPa NNE 2mph /  3.2km/h 6mph /  9.7km/h 37% 0.00in /  0mm 378 W/m2
16:00 86.4 °F /  30.2 °C 56.3 °F /  13.5 °C 30.12in /  1019.9hPa SE 2mph /  3.2km/h 4mph /  6.4km/h 36% 0.00in /  0mm 350 W/m2
16:10 86.2 °F /  30.1 °C 56.9 °F /  13.8 °C 30.12in /  1019.9hPa NE 2mph /  3.2km/h 4mph /  6.4km/h 37% 0.00in /  0mm 322 W/m2
16:20 86.1 °F /  30.1 °C 55.3 °F /  12.9 °C 30.12in /  1019.9hPa NNE 1mph /  1.6km/h 6mph /  9.7km/h 35% 0.00in /  0mm 293 W/m2
16:30 85.8 °F /  29.9 °C 55 °F /  12.8 °C 30.12in /  1019.9hPa NNE 2mph /  3.2km/h 5mph /  8km/h 35% 0.00in /  0mm 264 W/m2
16:40 85.6 °F /  29.8 °C 56.4 °F /  13.6 °C 30.12in /  1019.9hPa Calm   3mph /  4.8km/h 37% 0.00in /  0mm 235 W/m2
16:50 85.3 °F /  29.6 °C 54.5 °F /  12.5 °C 30.12in /  1019.9hPa North 2mph /  3.2km/h 5mph /  8km/h 35% 0.00in /  0mm 206 W/m2
17:00 84.9 °F /  29.4 °C 55.7 °F /  13.2 °C 30.11in /  1019.5hPa North 2mph /  3.2km/h 7mph /  11.3km/h 37% 0.00in /  0mm 174 W/m2
17:10 84.4 °F /  29.1 °C 56 °F /  13.3 °C 30.11in /  1019.5hPa North 2mph /  3.2km/h 6mph /  9.7km/h 38% 0.00in /  0mm 146 W/m2
17:20 83.7 °F /  28.7 °C 56.1 °F /  13.4 °C 30.11in /  1019.5hPa North 2mph /  3.2km/h 6mph /  9.7km/h 39% 0.00in /  0mm 118 W/m2
17:30 83.1 °F /  28.4 °C 56.3 °F /  13.5 °C 30.11in /  1019.5hPa North 3mph /  4.8km/h 7mph /  11.3km/h 40% 0.00in /  0mm 90 W/m2
17:40 82.4 °F /  28 °C 57 °F /  13.9 °C 30.11in /  1019.5hPa North 2mph /  3.2km/h 7mph /  11.3km/h 42% 0.00in /  0mm 64 W/m2
17:50 81.6 °F /  27.6 °C 57 °F /  13.9 °C 30.11in /  1019.5hPa Calm   4mph /  6.4km/h 43% 0.00in /  0mm 41 W/m2
18:00 80.8 °F /  27.1 °C 56.8 °F /  13.8 °C 30.11in /  1019.5hPa Calm   2mph /  3.2km/h 44% 0.00in /  0mm 23 W/m2
18:10 79.6 °F /  26.4 °C 56.4 °F /  13.6 °C 30.12in /  1019.9hPa NNW 2mph /  3.2km/h 5mph /  8km/h 45% 0.00in /  0mm 9 W/m2
18:20 78.6 °F /  25.9 °C 56.6 °F /  13.7 °C 30.12in /  1019.9hPa South 2mph /  3.2km/h 4mph /  6.4km/h 47% 0.00in /  0mm 5 W/m2
18:30 77.3 °F /  25.2 °C 56.7 °F /  13.7 °C 30.12in /  1019.9hPa South 3mph /  4.8km/h 5mph /  8km/h 49% 0.00in /  0mm 0 W/m2
18:40 75.9 °F /  24.4 °C 56.5 °F /  13.6 °C 30.12in /  1019.9hPa South 2mph /  3.2km/h 5mph /  8km/h 51% 0.00in /  0mm 0 W/m2
18:50 74.8 °F /  23.8 °C 56.6 °F /  13.7 °C 30.12in /  1019.9hPa SSW 2mph /  3.2km/h 3mph /  4.8km/h 53% 0.00in /  0mm 0 W/m2
19:00 73.5 °F /  23.1 °C 55.9 °F /  13.3 °C 30.12in /  1019.9hPa SW 2mph /  3.2km/h 3mph /  4.8km/h 54% 0.00in /  0mm 0 W/m2
19:10 72.3 °F /  22.4 °C 55.2 °F /  12.9 °C 30.12in /  1019.9hPa SW 2mph /  3.2km/h 5mph /  8km/h 55% 0.00in /  0mm 0 W/m2
19:20 71.4 °F /  21.9 °C 55.4 °F /  13 °C 30.12in /  1019.9hPa WSW 2mph /  3.2km/h 4mph /  6.4km/h 57% 0.00in /  0mm 0 W/m2
19:30 70.5 °F /  21.4 °C 55 °F /  12.8 °C 30.12in /  1019.9hPa WSW 2mph /  3.2km/h 3mph /  4.8km/h 58% 0.00in /  0mm 0 W/m2
19:40 69.7 °F /  20.9 °C 54.8 °F /  12.7 °C 30.12in /  1019.9hPa SW 2mph /  3.2km/h 3mph /  4.8km/h 59% 0.00in /  0mm 0 W/m2
19:50 68.8 °F /  20.4 °C 54.4 °F /  12.4 °C 30.13in /  1020.2hPa West 2mph /  3.2km/h 3mph /  4.8km/h 60% 0.00in /  0mm 0 W/m2
20:00 67.9 °F /  19.9 °C 53.5 °F /  11.9 °C 30.13in /  1020.2hPa WSW 2mph /  3.2km/h 3mph /  4.8km/h 60% 0.00in /  0mm 0 W/m2
20:10 66.9 °F /  19.4 °C 53.4 °F /  11.9 °C 30.13in /  1020.2hPa West 1mph /  1.6km/h 3mph /  4.8km/h 62% 0.00in /  0mm 0 W/m2
20:20 66 °F /  18.9 °C 53.1 °F /  11.7 °C 30.13in /  1020.2hPa WSW 1mph /  1.6km/h 2mph /  3.2km/h 63% 0.00in /  0mm 0 W/m2
20:30 65.2 °F /  18.4 °C 52.7 °F /  11.5 °C 30.13in /  1020.2hPa SW 1mph /  1.6km/h 2mph /  3.2km/h 64% 0.00in /  0mm 0 W/m2
20:40 64.5 °F /  18.1 °C 52.1 °F /  11.2 °C 30.14in /  1020.5hPa Calm   2mph /  3.2km/h 64% 0.00in /  0mm 0 W/m2
20:50 63.9 °F /  17.7 °C 51.9 °F /  11.1 °C 30.14in /  1020.5hPa Calm   2mph /  3.2km/h 65% 0.00in /  0mm 0 W/m2
21:00 63.3 °F /  17.4 °C 52.2 °F /  11.2 °C 30.14in /  1020.5hPa Calm     67% 0.00in /  0mm 0 W/m2
21:10 62.8 °F /  17.1 °C 52.1 °F /  11.2 °C 30.14in /  1020.5hPa WNW 1mph /  1.6km/h 2mph /  3.2km/h 68% 0.00in /  0mm 0 W/m2
21:20 62.2 °F /  16.8 °C 51.5 °F /  10.8 °C 30.14in /  1020.5hPa South 1mph /  1.6km/h 3mph /  4.8km/h 68% 0.00in /  0mm 0 W/m2
21:30 61.9 °F /  16.6 °C 52 °F /  11.1 °C 30.14in /  1020.5hPa SW 1mph /  1.6km/h 2mph /  3.2km/h 70% 0.00in /  0mm 0 W/m2
21:40 61.5 °F /  16.4 °C 52.4 °F /  11.3 °C 30.14in /  1020.5hPa Calm   4mph /  6.4km/h 72% 0.00in /  0mm 0 W/m2
21:50 61 °F /  16.1 °C 52 °F /  11.1 °C 30.15in /  1020.9hPa Calm   2mph /  3.2km/h 72% 0.00in /  0mm 0 W/m2
22:00 60.6 °F /  15.9 °C 50.7 °F /  10.4 °C 30.15in /  1020.9hPa Calm   1mph /  1.6km/h 70% 0.00in /  0mm 0 W/m2
22:10 60 °F /  15.6 °C 51 °F /  10.6 °C 30.15in /  1020.9hPa Calm     72% 0.00in /  0mm 0 W/m2
22:20 59.4 °F /  15.2 °C 50.7 °F /  10.4 °C 30.15in /  1020.9hPa Calm   2mph /  3.2km/h 73% 0.00in /  0mm 0 W/m2
22:30 58.7 °F /  14.8 °C 50.1 °F /  10.1 °C 30.15in /  1020.9hPa Calm   1mph /  1.6km/h 73% 0.00in /  0mm 0 W/m2
22:40 58.3 °F /  14.6 °C 50 °F /  10 °C 30.15in /  1020.9hPa Calm   2mph /  3.2km/h 74% 0.00in /  0mm 0 W/m2
22:50 57.7 °F /  14.3 °C 49.5 °F /  9.7 °C 30.15in /  1020.9hPa NW 1mph /  1.6km/h 2mph /  3.2km/h 74% 0.00in /  0mm 0 W/m2
23:00 57.4 °F /  14.1 °C 49.5 °F /  9.7 °C 30.15in /  1020.9hPa Calm   2mph /  3.2km/h 75% 0.00in /  0mm 0 W/m2
23:10 57.2 °F /  14 °C 50.1 °F /  10.1 °C 30.15in /  1020.9hPa Calm   1mph /  1.6km/h 77% 0.00in /  0mm 0 W/m2
23:20 56.8 °F /  13.8 °C 49.6 °F /  9.8 °C 30.16in /  1021.2hPa Calm     77% 0.00in /  0mm 0 W/m2
23:30 56.4 °F /  13.6 °C 49.6 °F /  9.8 °C 30.16in /  1021.2hPa Calm   1mph /  1.6km/h 78% 0.00in /  0mm 0 W/m2
23:40 56.1 °F /  13.4 °C 49.4 °F /  9.7 °C 30.16in /  1021.2hPa Calm   2mph /  3.2km/h 78% 0.00in /  0mm 0 W/m2
23:50 55.8 °F /  13.2 °C 49 °F /  9.4 °C 30.16in /  1021.2hPa Calm   2mph /  3.2km/h 78% 0.00in /  0mm 0 W/m2
Knjazevac, Serbia
Compliments of Weather Underground - 2 mb